Amarillo, Texas
Current Conditions -  °F | °C
As of 5:53 PM on Wednesday 28 Jan 2015 (Local Time) from KAMA Reporting Station
Clear Clear  
Wind Chill: 64°   Ceiling: Unl
Heat Index: 64°   Visibility: 10mi
Dew Point: 32°   Wind: 3mph
Humidity: 30%   Direction: 70°ENE
Pressure: 30.04"   Gusts: NA
Location:  35.21°N, 101.83°W
Report Text: KAMA 282353Z 07003KT 10SM CLR 18/00 A3004 RMK AO2 SLP146 T01780000 10217 20161 53009
Loading
Personal Weather Stations






























Interactive Weather Map New forecast layout! Learn more

10-Day Weather Forecast

Advertisements
Track Severe Weather on mobile